createdAt,value
2018-07-12T00:00:04.089Z,23.69
2018-07-12T00:02:32.192Z,23.76
2018-07-12T00:05:00.292Z,23.66
2018-07-12T00:07:28.390Z,23.61
2018-07-12T00:09:56.468Z,23.60
2018-07-12T00:12:24.564Z,23.46
2018-07-12T00:14:52.624Z,23.51
2018-07-12T00:17:20.735Z,23.47
2018-07-12T00:19:48.851Z,23.38
2018-07-12T00:22:16.956Z,23.39
2018-07-12T00:24:45.009Z,23.39
2018-07-12T00:27:13.108Z,23.40
2018-07-12T00:29:41.204Z,23.40
2018-07-12T00:32:09.242Z,23.42
2018-07-12T00:34:37.304Z,23.42
2018-07-12T00:37:05.461Z,23.44
2018-07-12T00:39:33.571Z,23.44
2018-07-12T00:42:01.644Z,23.43
2018-07-12T00:44:29.752Z,23.43
2018-07-12T00:46:57.841Z,23.49
2018-07-12T00:49:27.132Z,23.48
2018-07-12T00:51:55.512Z,23.49
2018-07-12T00:54:23.589Z,23.43
2018-07-12T00:56:51.700Z,23.32
2018-07-12T00:59:19.914Z,23.34
2018-07-12T01:01:48.109Z,23.33
2018-07-12T01:04:16.216Z,23.32
2018-07-12T01:06:44.280Z,23.36
2018-07-12T01:09:12.383Z,23.34
2018-07-12T01:11:40.452Z,23.35
2018-07-12T01:14:08.592Z,23.16
2018-07-12T01:16:36.700Z,23.09
2018-07-12T01:19:04.804Z,23.12
2018-07-12T01:21:32.868Z,23.07
2018-07-12T01:24:01.016Z,22.98
2018-07-12T01:26:29.083Z,22.86
2018-07-12T01:28:57.196Z,22.83
2018-07-12T01:31:25.301Z,22.70
2018-07-12T01:33:53.492Z,22.74
2018-07-12T01:36:21.624Z,22.80
2018-07-12T01:38:49.684Z,22.85
2018-07-12T01:41:17.824Z,22.90
2018-07-12T01:43:45.892Z,22.93
2018-07-12T01:46:14.000Z,22.97
2018-07-12T01:48:42.067Z,23.00
2018-07-12T01:51:10.129Z,23.02
2018-07-12T01:53:38.236Z,23.00
2018-07-12T01:56:06.349Z,22.97
2018-07-12T01:58:34.456Z,22.97
2018-07-12T02:01:02.521Z,22.96
2018-07-12T02:03:30.616Z,22.96
2018-07-12T02:05:58.685Z,22.94
2018-07-12T02:08:26.802Z,22.87
2018-07-12T02:10:54.863Z,22.86
2018-07-12T02:13:22.945Z,22.84
2018-07-12T02:15:51.030Z,22.83
2018-07-12T02:18:19.113Z,22.81
2018-07-12T02:20:47.213Z,22.76
2018-07-12T02:23:15.316Z,22.75
2018-07-12T02:25:43.420Z,22.68
2018-07-12T02:28:11.529Z,22.64
2018-07-12T02:30:39.625Z,22.55
2018-07-12T02:33:07.689Z,22.50
2018-07-12T02:35:35.846Z,22.45
2018-07-12T02:38:03.920Z,22.40
2018-07-12T02:40:32.047Z,22.37
2018-07-12T02:43:00.203Z,22.35
2018-07-12T02:45:28.330Z,22.24
2018-07-12T02:47:56.436Z,22.23
2018-07-12T02:50:24.516Z,22.22
2018-07-12T02:52:52.620Z,22.20
2018-07-12T02:55:20.734Z,22.18
2018-07-12T02:57:48.844Z,22.18
2018-07-12T03:00:16.922Z,22.16
2018-07-12T03:02:45.013Z,22.12
2018-07-12T03:05:13.128Z,22.07
2018-07-12T03:07:41.245Z,22.01
2018-07-12T03:10:09.328Z,22.01
2018-07-12T03:12:37.454Z,21.87
2018-07-12T03:15:05.593Z,21.86
2018-07-12T03:17:33.660Z,21.89
2018-07-12T03:20:01.805Z,21.87
2018-07-12T03:22:29.891Z,21.95
2018-07-12T03:24:58.009Z,21.94
2018-07-12T03:27:26.077Z,21.98
2018-07-12T03:29:54.180Z,22.01
2018-07-12T03:32:22.288Z,22.03
2018-07-12T03:34:50.354Z,22.08
2018-07-12T03:37:18.587Z,22.16
2018-07-12T03:39:46.660Z,22.15
2018-07-12T03:42:14.785Z,22.14
2018-07-12T03:44:42.851Z,22.19
2018-07-12T03:47:10.916Z,22.24
2018-07-12T03:49:39.024Z,22.33
2018-07-12T03:52:07.109Z,22.44
2018-07-12T03:54:35.204Z,22.49
2018-07-12T03:57:03.301Z,22.62
2018-07-12T03:59:31.416Z,22.79
2018-07-12T04:01:59.481Z,22.91
2018-07-12T04:04:27.548Z,23.03
2018-07-12T04:06:55.684Z,23.15
2018-07-12T04:09:23.748Z,23.21
2018-07-12T04:11:51.927Z,23.31
2018-07-12T04:14:20.032Z,23.53
2018-07-12T04:16:48.093Z,23.70
2018-07-12T04:19:16.156Z,23.75
2018-07-12T04:21:44.264Z,23.88
2018-07-12T04:24:12.372Z,24.14
2018-07-12T04:26:40.468Z,24.24
2018-07-12T04:29:08.576Z,24.53
2018-07-12T04:31:36.685Z,24.67
2018-07-12T04:34:04.760Z,24.82
2018-07-12T04:36:32.888Z,25.09
2018-07-12T04:39:01.019Z,25.19
2018-07-12T04:41:29.128Z,25.38
2018-07-12T04:43:57.192Z,25.54
2018-07-12T04:46:25.300Z,25.78
2018-07-12T04:48:53.360Z,25.93
2018-07-12T04:51:21.457Z,26.11
2018-07-12T04:53:49.543Z,25.96
2018-07-12T04:56:17.657Z,26.11
2018-07-12T04:58:45.876Z,26.04
2018-07-12T05:01:13.931Z,26.10
2018-07-12T05:03:42.014Z,25.88
2018-07-12T05:06:10.101Z,26.31
2018-07-12T05:08:38.192Z,26.44
2018-07-12T05:11:06.297Z,26.66
2018-07-12T05:13:34.412Z,26.74
2018-07-12T05:16:02.559Z,26.84
2018-07-12T05:18:30.632Z,26.93
2018-07-12T05:20:59.061Z,26.78
2018-07-12T05:23:27.196Z,26.82
2018-07-12T05:25:55.284Z,27.10
2018-07-12T05:28:23.473Z,26.98
2018-07-12T05:30:51.638Z,27.06
2018-07-12T05:33:19.749Z,27.10
2018-07-12T05:35:49.252Z,27.24
2018-07-12T05:38:18.920Z,27.23
2018-07-12T05:40:48.704Z,27.36
2018-07-12T05:43:18.984Z,27.81
2018-07-12T05:45:48.628Z,27.83
2018-07-12T05:48:18.323Z,27.92
2018-07-12T05:50:49.986Z,28.19
2018-07-12T05:53:20.361Z,28.08
2018-07-12T05:55:50.264Z,28.10
2018-07-12T05:58:20.156Z,28.01
2018-07-12T06:00:50.300Z,28.06
2018-07-12T06:03:20.366Z,28.36
2018-07-12T06:05:50.365Z,28.50
2018-07-12T06:08:20.324Z,28.23
2018-07-12T06:10:50.266Z,28.50
2018-07-12T06:13:20.202Z,28.74
2018-07-12T06:15:50.201Z,28.89
2018-07-12T06:18:20.121Z,28.80
2018-07-12T06:20:49.994Z,28.95
2018-07-12T06:23:19.920Z,28.71
2018-07-12T06:25:49.849Z,28.89
2018-07-12T06:28:19.765Z,28.81
2018-07-12T06:30:50.556Z,28.91
2018-07-12T06:33:20.481Z,28.98
2018-07-12T06:35:50.416Z,29.10
2018-07-12T06:38:20.560Z,29.14
2018-07-12T06:40:50.876Z,28.94
2018-07-12T06:43:20.922Z,29.03
2018-07-12T06:45:50.830Z,29.07
2018-07-12T06:48:20.705Z,29.39
2018-07-12T06:50:50.632Z,29.39
2018-07-12T06:53:20.548Z,29.73
2018-07-12T06:55:50.524Z,29.57
2018-07-12T06:58:20.505Z,29.45
2018-07-12T07:00:50.564Z,28.98
2018-07-12T07:03:20.537Z,29.52
2018-07-12T07:05:50.553Z,29.72
2018-07-12T07:08:20.544Z,29.32
2018-07-12T07:10:50.499Z,30.17
2018-07-12T07:13:20.486Z,30.13
2018-07-12T07:15:50.507Z,30.29
2018-07-12T07:18:20.541Z,29.86
2018-07-12T07:20:50.995Z,30.00
2018-07-12T07:23:20.976Z,29.81
2018-07-12T07:25:50.865Z,29.95
2018-07-12T07:28:21.052Z,30.28
2018-07-12T07:30:53.777Z,29.95
2018-07-12T07:33:23.932Z,30.61
2018-07-12T07:35:53.896Z,30.31
2018-07-12T07:38:23.843Z,30.32
2018-07-12T07:40:53.737Z,30.50
2018-07-12T07:43:23.769Z,30.64
2018-07-12T07:45:53.966Z,30.81
2018-07-12T07:48:24.004Z,30.84
2018-07-12T07:50:53.889Z,30.83
2018-07-12T07:53:23.744Z,30.66
2018-07-12T07:55:53.689Z,30.82
2018-07-12T07:58:23.668Z,31.03
2018-07-12T08:00:53.610Z,30.94
2018-07-12T08:03:23.500Z,31.01
2018-07-12T08:05:53.517Z,30.96
2018-07-12T08:08:23.493Z,31.05
2018-07-12T08:10:53.482Z,31.26
2018-07-12T08:13:23.645Z,31.52
2018-07-12T08:15:53.577Z,31.52
2018-07-12T08:18:23.548Z,31.36
2018-07-12T08:20:53.520Z,31.42
2018-07-12T08:23:23.841Z,31.33
2018-07-12T08:25:53.855Z,31.49
2018-07-12T08:28:26.920Z,31.39
2018-07-12T08:31:00.956Z,31.52
2018-07-12T08:33:31.258Z,31.60
2018-07-12T08:36:01.296Z,31.62
2018-07-12T08:38:31.441Z,31.65
2018-07-12T08:41:01.507Z,31.77
2018-07-12T08:43:31.408Z,31.79
2018-07-12T08:46:01.406Z,31.96
2018-07-12T08:48:31.399Z,32.07
2018-07-12T08:51:01.310Z,32.05
2018-07-12T08:53:31.189Z,31.80
2018-07-12T08:56:01.253Z,31.95
2018-07-12T08:58:31.142Z,32.15
2018-07-12T09:01:01.136Z,32.21
2018-07-12T09:03:31.029Z,32.22
2018-07-12T09:06:01.029Z,32.40
2018-07-12T09:08:31.002Z,32.30
2018-07-12T09:11:00.910Z,32.28
2018-07-12T09:13:30.730Z,32.33
2018-07-12T09:16:00.642Z,32.44
2018-07-12T09:18:30.497Z,32.59
2018-07-12T09:21:00.469Z,32.59
2018-07-12T09:23:30.368Z,32.55
2018-07-12T09:26:00.168Z,32.50
2018-07-12T09:28:30.118Z,32.66
2018-07-12T09:30:59.979Z,32.82
2018-07-12T09:33:29.889Z,32.82
2018-07-12T09:35:59.855Z,32.60
2018-07-12T09:38:51.480Z,32.72
2018-07-12T09:41:23.056Z,32.83
2018-07-12T09:43:53.308Z,32.81
2018-07-12T09:46:23.174Z,32.80
2018-07-12T09:48:53.524Z,33.02
2018-07-12T09:51:23.400Z,33.08
2018-07-12T09:53:53.420Z,33.16
2018-07-12T09:56:24.851Z,33.28
2018-07-12T09:58:54.835Z,33.29
2018-07-12T10:01:29.937Z,33.14
2018-07-12T10:03:59.861Z,33.09
2018-07-12T10:06:37.778Z,33.21
2018-07-12T10:09:15.867Z,33.41
2018-07-12T10:11:53.513Z,33.39
2018-07-12T10:14:28.737Z,32.43
2018-07-12T10:19:08.734Z,33.73
2018-07-12T10:21:38.848Z,33.45
2018-07-12T10:24:08.737Z,33.42
2018-07-12T10:26:38.656Z,33.33
2018-07-12T10:29:08.595Z,33.35
2018-07-12T10:31:38.605Z,33.44
2018-07-12T10:34:08.524Z,33.27
2018-07-12T10:36:38.413Z,33.28
2018-07-12T10:39:09.508Z,33.29
2018-07-12T10:41:39.389Z,32.81
2018-07-12T10:44:09.409Z,33.36
2018-07-12T10:46:39.287Z,33.32
2018-07-12T10:49:09.748Z,32.96
2018-07-12T10:51:39.787Z,33.73
2018-07-12T10:54:09.759Z,33.78
2018-07-12T10:56:39.800Z,33.79
2018-07-12T10:59:09.608Z,33.83
2018-07-12T11:01:39.532Z,34.04
2018-07-12T11:04:09.461Z,33.73
2018-07-12T11:06:39.320Z,33.62
2018-07-12T11:09:09.917Z,33.69
2018-07-12T11:11:39.889Z,33.48
2018-07-12T11:14:09.817Z,34.10
2018-07-12T11:16:39.737Z,34.21
2018-07-12T11:19:10.636Z,34.20
2018-07-12T11:21:40.639Z,34.25
2018-07-12T11:24:10.639Z,34.16
2018-07-12T11:26:40.507Z,34.25
2018-07-12T11:29:10.453Z,34.28
2018-07-12T11:31:40.308Z,34.34
2018-07-12T11:34:10.304Z,34.31
2018-07-12T11:36:40.276Z,34.34
2018-07-12T11:39:10.214Z,34.48
2018-07-12T11:41:40.160Z,34.60
2018-07-12T11:44:10.133Z,34.59
2018-07-12T11:46:40.033Z,34.33
2018-07-12T11:49:09.929Z,34.45
2018-07-12T11:51:39.889Z,34.25
2018-07-12T11:54:09.781Z,34.12
2018-07-12T11:56:39.720Z,34.29
2018-07-12T11:59:09.641Z,34.24
2018-07-12T12:01:39.580Z,34.29
2018-07-12T12:04:09.453Z,34.40
2018-07-12T12:06:39.352Z,34.49
2018-07-12T12:09:09.249Z,34.73
2018-07-12T12:11:39.117Z,34.76
2018-07-12T12:14:08.928Z,34.64
2018-07-12T12:16:38.770Z,34.64
2018-07-12T12:19:08.672Z,34.64
2018-07-12T12:21:38.516Z,34.75
2018-07-12T12:24:08.444Z,34.80
2018-07-12T12:26:38.315Z,34.30
2018-07-12T12:29:08.197Z,34.59
2018-07-12T12:31:38.085Z,34.56
2018-07-12T12:34:07.988Z,34.68
2018-07-12T12:36:37.836Z,34.75
2018-07-12T12:39:07.887Z,34.81
2018-07-12T12:41:37.944Z,34.89
2018-07-12T12:44:08.037Z,34.89
2018-07-12T12:46:38.042Z,34.88
2018-07-12T12:49:07.912Z,34.98
2018-07-12T12:51:37.908Z,35.05
2018-07-12T12:54:07.802Z,35.05
2018-07-12T12:56:37.820Z,34.95
2018-07-12T12:59:07.720Z,35.04
2018-07-12T13:01:37.696Z,35.00
2018-07-12T13:04:07.628Z,34.99
2018-07-12T13:06:37.562Z,35.01
2018-07-12T13:09:08.265Z,34.98
2018-07-12T13:11:38.348Z,35.01
2018-07-12T13:14:08.268Z,35.05
2018-07-12T13:16:38.212Z,35.04
2018-07-12T13:19:08.097Z,35.11
2018-07-12T13:21:37.948Z,35.11
2018-07-12T13:24:07.828Z,35.07
2018-07-12T13:26:37.688Z,35.02
2018-07-12T13:29:08.104Z,34.79
2018-07-12T13:31:38.000Z,34.93
2018-07-12T13:34:08.953Z,34.89
2018-07-12T13:36:38.995Z,34.77
2018-07-12T13:39:09.958Z,34.75
2018-07-12T13:41:39.854Z,34.79
2018-07-12T13:44:17.448Z,34.75
2018-07-12T13:46:48.319Z,34.14
2018-07-12T13:49:18.288Z,34.60
2018-07-12T13:51:49.304Z,34.63
2018-07-12T13:54:19.568Z,34.67
2018-07-12T13:56:50.224Z,34.67
2018-07-12T13:59:20.136Z,34.63
2018-07-12T14:01:50.128Z,34.61
2018-07-12T14:04:20.068Z,34.67
2018-07-12T14:06:49.962Z,34.66
2018-07-12T14:09:19.900Z,34.69
2018-07-12T14:11:49.801Z,34.67
2018-07-12T14:14:19.762Z,34.68
2018-07-12T14:16:49.628Z,34.69
2018-07-12T14:19:19.557Z,34.63
2018-07-12T14:21:49.447Z,34.66
2018-07-12T14:24:19.549Z,34.65
2018-07-12T14:26:49.464Z,33.85
2018-07-12T14:29:20.199Z,34.63
2018-07-12T14:31:50.362Z,34.64
2018-07-12T14:34:20.290Z,34.67
2018-07-12T14:36:50.156Z,34.68
2018-07-12T14:39:19.967Z,34.72
2018-07-12T14:41:49.813Z,34.69
2018-07-12T14:44:19.678Z,34.57
2018-07-12T14:46:49.580Z,34.53
2018-07-12T14:49:19.492Z,34.50
2018-07-12T14:51:49.304Z,34.48
2018-07-12T14:54:19.192Z,34.48
2018-07-12T14:56:49.217Z,34.47
2018-07-12T14:59:19.079Z,34.42
2018-07-12T15:01:48.979Z,34.45
2018-07-12T15:04:18.833Z,34.30
2018-07-12T15:06:48.709Z,34.32
2018-07-12T15:09:18.766Z,34.25
2018-07-12T15:11:48.435Z,34.25
2018-07-12T15:14:18.320Z,34.36
2018-07-12T15:16:48.218Z,34.40
2018-07-12T15:19:18.043Z,34.43
2018-07-12T15:21:47.893Z,34.53
2018-07-12T15:24:17.752Z,34.34
2018-07-12T15:26:47.564Z,34.30
2018-07-12T15:29:17.501Z,34.17
2018-07-12T15:31:47.361Z,33.96
2018-07-12T15:34:17.201Z,33.99
2018-07-12T15:36:46.996Z,33.91
2018-07-12T15:39:17.158Z,33.81
2018-07-12T15:41:46.981Z,33.81
2018-07-12T15:44:16.903Z,33.76
2018-07-12T15:46:46.716Z,33.66
2018-07-12T15:49:16.544Z,33.57
2018-07-12T15:51:46.397Z,33.59
2018-07-12T15:54:16.296Z,33.34
2018-07-12T15:56:46.165Z,33.45
2018-07-12T15:59:16.007Z,33.38
2018-07-12T16:01:45.851Z,33.36
2018-07-12T16:04:15.700Z,33.28
2018-07-12T16:06:45.500Z,33.20
2018-07-12T16:09:15.387Z,33.13
2018-07-12T16:11:45.236Z,33.11
2018-07-12T16:14:15.049Z,33.05
2018-07-12T16:16:44.926Z,32.94
2018-07-12T16:19:14.767Z,32.92
2018-07-12T16:21:44.600Z,32.86
2018-07-12T16:24:14.477Z,32.81
2018-07-12T16:26:44.367Z,32.76
2018-07-12T16:29:14.256Z,32.66
2018-07-12T16:31:44.104Z,32.67
2018-07-12T16:34:14.168Z,32.62
2018-07-12T16:36:43.952Z,32.58
2018-07-12T16:39:13.813Z,32.55
2018-07-12T16:41:43.660Z,32.50
2018-07-12T16:44:13.681Z,32.46
2018-07-12T16:46:43.612Z,32.43
2018-07-12T16:49:13.412Z,32.38
2018-07-12T16:51:43.249Z,32.30
2018-07-12T16:54:13.098Z,32.24
2018-07-12T16:56:42.940Z,32.19
2018-07-12T16:59:12.744Z,32.11
2018-07-12T17:01:42.570Z,32.04
2018-07-12T17:04:12.427Z,32.05
2018-07-12T17:06:42.290Z,32.01
2018-07-12T17:09:12.268Z,31.97
2018-07-12T17:11:42.084Z,31.94
2018-07-12T17:14:12.011Z,31.91
2018-07-12T17:16:41.820Z,31.89
2018-07-12T17:19:11.661Z,31.87
2018-07-12T17:21:41.543Z,31.83
2018-07-12T17:24:11.390Z,31.73
2018-07-12T17:26:41.248Z,31.73
2018-07-12T17:29:11.059Z,31.67
2018-07-12T17:31:40.996Z,31.63
2018-07-12T17:34:10.845Z,31.54
2018-07-12T17:36:40.678Z,31.50
2018-07-12T17:39:10.493Z,31.38
2018-07-12T17:41:40.331Z,31.29
2018-07-12T17:44:10.163Z,31.20
2018-07-12T17:46:39.999Z,31.10
2018-07-12T17:49:09.856Z,31.00
2018-07-12T17:51:39.708Z,30.92
2018-07-12T17:54:09.515Z,30.82
2018-07-12T17:56:39.388Z,30.74
2018-07-12T17:59:09.247Z,30.62
2018-07-12T18:01:39.105Z,30.51
2018-07-12T18:04:08.989Z,30.44
2018-07-12T18:06:38.792Z,30.35
2018-07-12T18:09:08.835Z,30.26
2018-07-12T18:11:38.664Z,30.11
2018-07-12T18:14:08.555Z,30.02
2018-07-12T18:16:38.368Z,29.89
2018-07-12T18:19:08.208Z,29.79
2018-07-12T18:21:38.024Z,29.72
2018-07-12T18:24:07.908Z,29.64
2018-07-12T18:26:37.760Z,29.57
2018-07-12T18:29:07.575Z,29.49
2018-07-12T18:31:37.420Z,29.43
2018-07-12T18:34:07.256Z,29.39
2018-07-12T18:36:37.052Z,29.32
2018-07-12T18:39:08.703Z,29.28
2018-07-12T18:41:38.761Z,29.24
2018-07-12T18:44:08.655Z,28.63
2018-07-12T18:46:38.508Z,29.22
2018-07-12T18:49:08.417Z,29.25
2018-07-12T18:51:38.240Z,29.22
2018-07-12T18:54:08.103Z,29.20
2018-07-12T18:56:37.923Z,29.20
2018-07-12T18:59:07.795Z,29.21
2018-07-12T19:01:37.620Z,29.19
2018-07-12T19:04:07.584Z,29.05
2018-07-12T19:06:37.408Z,29.01
2018-07-12T19:09:08.991Z,28.95
2018-07-12T19:11:38.948Z,29.01
2018-07-12T19:14:08.819Z,29.00
2018-07-12T19:16:38.685Z,29.00
2018-07-12T19:19:08.532Z,28.89
2018-07-12T19:21:38.376Z,28.82
2018-07-12T19:24:08.209Z,28.74
2018-07-12T19:26:38.044Z,28.76
2018-07-12T19:29:07.924Z,28.69
2018-07-12T19:31:37.828Z,28.63
2018-07-12T19:34:07.745Z,28.52
2018-07-12T19:36:37.616Z,28.55
2018-07-12T19:39:08.356Z,28.52
2018-07-12T19:41:38.268Z,28.41
2018-07-12T19:44:08.119Z,28.40
2018-07-12T19:46:37.939Z,28.36
2018-07-12T19:49:07.799Z,28.29
2018-07-12T19:51:37.625Z,28.27
2018-07-12T19:54:07.527Z,28.25
2018-07-12T19:56:37.368Z,28.18
2018-07-12T19:59:07.184Z,28.14
2018-07-12T20:01:37.033Z,28.07
2018-07-12T20:04:07.108Z,28.03
2018-07-12T20:06:36.987Z,27.99
2018-07-12T20:09:08.377Z,27.97
2018-07-12T20:11:38.277Z,27.94
2018-07-12T20:14:08.491Z,27.89
2018-07-12T20:16:38.720Z,27.86
2018-07-12T20:19:09.868Z,27.84
2018-07-12T20:21:39.716Z,27.74
2018-07-12T20:24:09.628Z,27.74
2018-07-12T20:26:39.492Z,27.66
2018-07-12T20:29:09.408Z,27.64
2018-07-12T20:31:39.268Z,27.51
2018-07-12T20:34:09.092Z,27.46
2018-07-12T20:36:39.029Z,27.44
2018-07-12T20:39:09.490Z,27.35
2018-07-12T20:41:39.286Z,27.29
2018-07-12T20:44:09.140Z,27.29
2018-07-12T20:46:38.985Z,27.18
2018-07-12T20:49:08.852Z,27.13
2018-07-12T20:51:38.775Z,26.99
2018-07-12T20:54:08.663Z,27.05
2018-07-12T20:56:38.460Z,26.93
2018-07-12T20:59:08.363Z,26.84
2018-07-12T21:01:38.194Z,26.74
2018-07-12T21:04:08.062Z,26.71
2018-07-12T21:06:37.983Z,26.72
2018-07-12T21:09:08.888Z,26.62
2018-07-12T21:11:38.757Z,26.66
2018-07-12T21:14:08.552Z,26.58
2018-07-12T21:16:38.411Z,26.52
2018-07-12T21:19:08.337Z,26.56
2018-07-12T21:21:38.196Z,26.45
2018-07-12T21:24:08.026Z,26.49
2018-07-12T21:26:37.864Z,26.42
2018-07-12T21:29:07.679Z,26.43
2018-07-12T21:31:37.528Z,26.37
2018-07-12T21:34:07.335Z,26.15
2018-07-12T21:36:37.164Z,26.19
2018-07-12T21:39:09.240Z,26.19
2018-07-12T21:41:39.042Z,26.20
2018-07-12T21:44:08.931Z,26.12
2018-07-12T21:46:38.752Z,26.00
2018-07-12T21:49:08.636Z,25.90
2018-07-12T21:51:38.515Z,25.98
2018-07-12T21:54:08.315Z,25.94
2018-07-12T21:56:38.158Z,25.94
2018-07-12T21:59:08.050Z,25.92
2018-07-12T22:01:37.879Z,25.90
2018-07-12T22:04:07.848Z,25.91
2018-07-12T22:06:52.820Z,25.89
2018-07-12T22:09:22.712Z,25.92
2018-07-12T22:11:52.668Z,25.86
2018-07-12T22:14:22.525Z,25.89
2018-07-12T22:16:52.429Z,25.73
2018-07-12T22:19:22.636Z,25.71
2018-07-12T22:21:52.448Z,25.67
2018-07-12T22:24:22.496Z,25.61
2018-07-12T22:26:52.316Z,25.63
2018-07-12T22:29:22.117Z,25.68
2018-07-12T22:31:51.955Z,25.72
2018-07-12T22:34:21.794Z,25.75
2018-07-12T22:36:51.657Z,25.76
2018-07-12T22:39:21.449Z,25.75
2018-07-12T22:41:51.303Z,25.73
2018-07-12T22:44:21.158Z,25.72
2018-07-12T22:46:50.948Z,25.72
2018-07-12T22:49:20.829Z,25.70
2018-07-12T22:51:50.625Z,25.69
2018-07-12T22:54:20.457Z,25.60
2018-07-12T22:56:50.592Z,25.47
2018-07-12T22:59:20.551Z,25.44
2018-07-12T23:01:50.408Z,25.40
2018-07-12T23:04:20.298Z,25.35
2018-07-12T23:06:50.246Z,25.32
2018-07-12T23:09:20.025Z,25.28
2018-07-12T23:11:49.809Z,25.26
2018-07-12T23:14:19.656Z,25.24
2018-07-12T23:16:49.508Z,25.21
2018-07-12T23:19:19.345Z,25.12
2018-07-12T23:21:49.159Z,25.11
2018-07-12T23:24:19.012Z,25.11
2018-07-12T23:26:48.805Z,25.08
2018-07-12T23:29:18.642Z,25.09
2018-07-12T23:31:48.744Z,25.05
2018-07-12T23:34:18.666Z,24.98
2018-07-12T23:36:48.508Z,24.98
2018-07-12T23:39:18.340Z,25.02
2018-07-12T23:41:48.169Z,24.98
2018-07-12T23:44:18.025Z,24.97
2018-07-12T23:46:47.976Z,24.93
2018-07-12T23:49:17.834Z,24.90
2018-07-12T23:51:47.672Z,24.90
2018-07-12T23:54:17.564Z,24.88
2018-07-12T23:56:47.372Z,24.88
2018-07-12T23:59:17.606Z,24.89
